Time;durP1;ratioP1;P1;durP2;ratioP2;P2;SDS_P1;SDS_P2;PMS_P1;PMS_P2;Temp;Humidity;BMP_temperature;BMP_pressure;BME280_temperature;BME280_humidity;BME280_pressure;Samples;Min_cycle;Max_cycle;Signal;HPM_P1;HPM_P2
2021/09/24 00:02:24;;;;;;;15.50;4.20;;;13.80;99.90;;;;;;5026416;28;20453;-73
2021/09/24 00:05:10;;;;;;;5.50;4.03;;;13.80;99.90;;;;;;5029805;28;20582;-74
2021/09/24 00:07:57;;;;;;;6.50;4.63;;;13.80;99.90;;;;;;5030891;28;20579;-74
2021/09/24 00:10:44;;;;;;;5.50;3.90;;;13.70;99.90;;;;;;5028394;28;20447;-74
2021/09/24 00:13:30;;;;;;;7.80;3.90;;;13.70;99.90;;;;;;5028978;28;20438;-72
2021/09/24 00:16:16;;;;;;;10.00;4.80;;;13.60;99.90;;;;;;5031631;28;20950;-73
2021/09/24 00:19:02;;;;;;;6.13;4.30;;;13.60;99.90;;;;;;5027741;28;21015;-74
2021/09/24 00:21:47;;;;;;;5.90;4.20;;;13.50;99.90;;;;;;5032572;28;20444;-74
2021/09/24 00:24:34;;;;;;;5.93;4.70;;;13.40;99.90;;;;;;5024993;28;20598;-74
2021/09/24 00:27:20;;;;;;;6.10;4.37;;;13.30;99.90;;;;;;5029779;28;20949;-74
2021/09/24 00:30:08;;;;;;;5.40;4.53;;;13.30;99.90;;;;;;5032033;28;20562;-74
2021/09/24 00:32:54;;;;;;;6.47;4.63;;;13.40;99.90;;;;;;5031268;28;20944;-74
2021/09/24 00:35:39;;;;;;;10.50;4.20;;;13.40;99.90;;;;;;5032068;28;20800;-73
2021/09/24 00:38:26;;;;;;;4.57;3.30;;;13.40;99.90;;;;;;5025057;28;20873;-73
2021/09/24 00:41:13;;;;;;;9.70;3.97;;;13.40;99.90;;;;;;5023631;28;20448;-74
2021/09/24 00:43:58;;;;;;;5.47;3.90;;;13.40;99.90;;;;;;5031512;28;20463;-74
2021/09/24 00:46:44;;;;;;;4.83;3.43;;;13.50;99.90;;;;;;5031096;28;20436;-74
2021/09/24 00:49:30;;;;;;;8.73;4.63;;;13.50;99.90;;;;;;5021688;28;20477;-73
2021/09/24 00:52:18;;;;;;;6.10;3.80;;;13.30;99.90;;;;;;5031176;28;20424;-74
2021/09/24 00:55:05;;;;;;;5.60;4.33;;;13.30;99.90;;;;;;5030847;28;20812;-73
2021/09/24 00:57:53;;;;;;;5.30;3.97;;;13.30;99.90;;;;;;5031848;28;20449;-73
2021/09/24 01:00:38;;;;;;;6.03;4.13;;;13.20;99.90;;;;;;5032023;28;20553;-71
2021/09/24 01:03:25;;;;;;;6.97;4.00;;;13.20;99.90;;;;;;5024961;28;20448;-74
2021/09/24 01:06:11;;;;;;;5.50;4.17;;;13.10;99.90;;;;;;5032441;28;20428;-74
2021/09/24 01:08:57;;;;;;;5.00;3.90;;;13.00;99.90;;;;;;5027903;28;21446;-74
2021/09/24 01:11:43;;;;;;;4.57;3.33;;;12.90;99.90;;;;;;5031247;28;20455;-74
2021/09/24 01:14:31;;;;;;;6.03;4.10;;;12.90;99.90;;;;;;5024184;28;20416;-73
2021/09/24 01:17:17;;;;;;;7.07;3.83;;;12.90;99.90;;;;;;5029140;28;20430;-73
2021/09/24 01:20:04;;;;;;;5.17;4.07;;;13.00;99.90;;;;;;5027969;28;20458;-74
2021/09/24 01:22:52;;;;;;;5.50;4.13;;;13.00;99.90;;;;;;5031806;28;20519;-74
2021/09/24 01:25:38;;;;;;;4.83;3.80;;;12.80;99.90;;;;;;5023640;28;20450;-74
2021/09/24 01:28:24;;;;;;;5.73;4.17;;;12.80;99.90;;;;;;5023567;28;20419;-74
2021/09/24 01:31:10;;;;;;;4.63;4.10;;;12.80;99.90;;;;;;5021729;28;20578;-74
2021/09/24 01:33:56;;;;;;;5.77;4.57;;;12.70;99.90;;;;;;5019612;28;20469;-74
2021/09/24 01:36:41;;;;;;;9.77;4.10;;;12.80;99.90;;;;;;5031071;28;20937;-74
2021/09/24 01:39:28;;;;;;;5.47;3.83;;;12.80;99.90;;;;;;5030694;28;20449;-74
2021/09/24 01:42:14;;;;;;;6.67;4.57;;;12.90;99.90;;;;;;5031855;28;20547;-73
2021/09/24 01:45:00;;;;;;;12.40;4.20;;;12.70;99.90;;;;;;5027474;28;20499;-73
2021/09/24 01:47:46;;;;;;;8.27;4.37;;;12.70;99.90;;;;;;5028048;28;20451;-74
2021/09/24 01:50:31;;;;;;;6.63;4.33;;;12.60;99.90;;;;;;5025168;28;20430;-74
2021/09/24 01:53:17;;;;;;;6.97;4.57;;;12.50;99.90;;;;;;5030234;28;20620;-74
2021/09/24 01:56:05;;;;;;;7.00;4.63;;;12.40;99.90;;;;;;5021730;28;20460;-74
2021/09/24 01:58:50;;;;;;;8.53;4.20;;;12.30;99.90;;;;;;5022119;28;20444;-74
2021/09/24 02:01:36;;;;;;;14.67;4.20;;;12.30;99.90;;;;;;5028686;28;20946;-74
2021/09/24 02:04:22;;;;;;;6.50;4.50;;;12.40;99.90;;;;;;5030073;28;20479;-73
2021/09/24 02:07:07;;;;;;;5.83;4.27;;;12.40;99.90;;;;;;5030024;28;20428;-74
2021/09/24 02:09:53;;;;;;;5.33;3.97;;;12.50;99.90;;;;;;5028509;28;20864;-74
2021/09/24 02:12:40;;;;;;;8.03;4.70;;;12.40;99.90;;;;;;5020533;28;20695;-73
2021/09/24 02:15:26;;;;;;;5.47;3.80;;;12.40;99.90;;;;;;5026710;28;20548;-74
2021/09/24 02:18:12;;;;;;;7.47;4.33;;;12.40;99.90;;;;;;5024452;28;20514;-73
2021/09/24 02:20:57;;;;;;;8.40;5.60;;;12.40;99.90;;;;;;5026185;28;20493;-74
2021/09/24 02:23:43;;;;;;;5.40;4.60;;;12.50;99.90;;;;;;5022200;28;20422;-74
2021/09/24 02:26:29;;;;;;;6.20;3.80;;;12.50;99.90;;;;;;5029877;28;20447;-74
2021/09/24 02:29:16;;;;;;;5.33;4.30;;;12.50;99.90;;;;;;5025175;28;20537;-74
2021/09/24 02:32:02;;;;;;;6.00;4.17;;;12.60;99.90;;;;;;5028624;28;20435;-73
2021/09/24 02:34:47;;;;;;;4.73;3.83;;;12.60;99.90;;;;;;5029119;28;20451;-74
2021/09/24 02:37:33;;;;;;;4.53;4.03;;;12.60;99.90;;;;;;5029346;28;20448;-74
2021/09/24 02:40:19;;;;;;;6.20;4.50;;;12.60;99.90;;;;;;5031275;28;20417;-73
2021/09/24 02:43:06;;;;;;;4.53;3.63;;;12.50;99.90;;;;;;5030804;28;20595;-74
2021/09/24 02:45:54;;;;;;;6.10;4.53;;;12.40;99.90;;;;;;5032355;28;21047;-74
2021/09/24 02:48:39;;;;;;;5.43;3.90;;;12.40;99.90;;;;;;5034350;28;20419;-74
2021/09/24 02:51:25;;;;;;;5.20;3.87;;;12.30;99.90;;;;;;5025120;28;20567;-71
2021/09/24 02:54:10;;;;;;;4.03;3.57;;;12.40;99.90;;;;;;5033276;28;20416;-74
2021/09/24 02:56:55;;;;;;;7.70;4.40;;;12.30;99.90;;;;;;5033281;28;20925;-74
2021/09/24 02:59:41;;;;;;;8.30;4.80;;;12.30;99.90;;;;;;5031588;28;20972;-73
2021/09/24 03:02:28;;;;;;;8.30;4.20;;;12.30;99.90;;;;;;5034180;28;20423;-73
2021/09/24 03:05:14;;;;;;;12.97;5.47;;;12.20;99.90;;;;;;5024873;28;20815;-74
2021/09/24 03:08:00;;;;;;;6.10;4.80;;;12.20;99.90;;;;;;5031350;28;20555;-74
2021/09/24 03:10:45;;;;;;;5.87;4.63;;;12.30;99.90;;;;;;5034133;28;20446;-74
2021/09/24 03:13:31;;;;;;;6.50;5.20;;;12.30;99.90;;;;;;5029264;28;20860;-74
2021/09/24 03:16:19;;;;;;;4.77;3.73;;;12.30;99.90;;;;;;5030369;28;20584;-74
2021/09/24 03:19:06;;;;;;;7.23;4.67;;;12.40;99.90;;;;;;5033048;28;20452;-74
2021/09/24 03:21:52;;;;;;;7.40;5.47;;;12.40;99.90;;;;;;5034169;28;20399;-73
2021/09/24 03:24:37;;;;;;;6.67;4.60;;;12.40;99.90;;;;;;5032088;28;20623;-74
2021/09/24 03:27:23;;;;;;;5.90;4.60;;;12.40;99.90;;;;;;5031553;28;20427;-74
2021/09/24 03:30:10;;;;;;;10.73;4.00;;;12.50;99.90;;;;;;5032189;28;20837;-74
2021/09/24 03:32:56;;;;;;;5.33;4.30;;;12.50;99.90;;;;;;5029880;28;20967;-74
2021/09/24 03:35:43;;;;;;;8.10;5.10;;;12.50;99.90;;;;;;5029889;28;20435;-74
2021/09/24 03:38:28;;;;;;;6.53;4.43;;;12.50;99.90;;;;;;5032363;28;20443;-73
2021/09/24 03:41:15;;;;;;;5.80;4.33;;;12.40;99.90;;;;;;5025635;28;20455;-74
2021/09/24 03:44:00;;;;;;;7.37;4.80;;;12.20;99.90;;;;;;5030186;28;20569;-73
2021/09/24 03:46:46;;;;;;;8.40;5.00;;;12.20;99.90;;;;;;5048329;23;20581;-73
2021/09/24 03:49:32;;;;;;;7.83;5.27;;;12.20;99.90;;;;;;5041670;28;20475;-74
2021/09/24 03:52:19;;;;;;;6.60;4.87;;;12.30;99.90;;;;;;5042995;28;20471;-74
2021/09/24 03:55:05;;;;;;;8.53;5.40;;;12.50;99.90;;;;;;5051437;28;20440;-74
2021/09/24 03:57:51;;;;;;;6.23;4.77;;;12.50;99.90;;;;;;5037106;28;21008;-74
2021/09/24 04:00:37;;;;;;;5.70;4.30;;;12.50;99.90;;;;;;5040352;28;21074;-74
2021/09/24 04:03:22;;;;;;;5.80;4.70;;;12.50;99.90;;;;;;5034754;28;20466;-74
2021/09/24 04:06:08;;;;;;;8.43;5.90;;;12.40;99.90;;;;;;5032030;28;20482;-74
2021/09/24 04:08:55;;;;;;;8.20;5.60;;;12.40;99.90;;;;;;5032992;28;20407;-74
2021/09/24 04:11:41;;;;;;;9.20;5.73;;;12.20;99.90;;;;;;5039183;28;20447;-74
2021/09/24 04:14:26;;;;;;;7.87;5.67;;;12.00;99.90;;;;;;5037004;28;20447;-74
2021/09/24 04:17:12;;;;;;;8.23;5.27;;;12.00;99.90;;;;;;5041088;28;20923;-74
2021/09/24 04:19:57;;;;;;;6.27;4.83;;;11.90;99.90;;;;;;5050759;28;20790;-73
2021/09/24 04:22:44;;;;;;;8.17;5.20;;;11.80;99.90;;;;;;5036813;28;20431;-73
2021/09/24 04:25:31;;;;;;;6.50;5.27;;;11.70;99.90;;;;;;5033814;28;21341;-74
2021/09/24 04:28:16;;;;;;;6.97;4.80;;;11.60;99.90;;;;;;5026092;28;20507;-73
2021/09/24 04:31:02;;;;;;;7.80;4.97;;;11.70;99.90;;;;;;5041575;28;20464;-74
2021/09/24 04:33:48;;;;;;;16.73;5.90;;;11.80;99.90;;;;;;5037286;28;20451;-72
2021/09/24 04:36:33;;;;;;;8.10;6.00;;;11.80;99.90;;;;;;5025284;28;20486;-74
2021/09/24 04:39:19;;;;;;;8.50;5.23;;;11.70;99.90;;;;;;5035064;28;20455;-74
2021/09/24 04:42:06;;;;;;;5.40;4.63;;;11.60;99.90;;;;;;5033782;28;20588;-74
2021/09/24 04:44:52;;;;;;;7.47;5.73;;;11.70;99.90;;;;;;5044896;28;20393;-73
2021/09/24 04:47:38;;;;;;;8.07;5.43;;;11.60;99.90;;;;;;5044594;28;21021;-74
2021/09/24 04:50:24;;;;;;;6.50;4.83;;;11.60;99.90;;;;;;5033579;28;20527;-74
2021/09/24 04:53:09;;;;;;;6.80;4.70;;;11.60;99.90;;;;;;5039699;28;20429;-74
2021/09/24 04:55:55;;;;;;;8.50;5.83;;;11.60;99.90;;;;;;5039071;28;20486;-74
2021/09/24 04:58:42;;;;;;;6.93;5.43;;;11.60;99.90;;;;;;5037077;28;20448;-73
2021/09/24 05:01:28;;;;;;;6.30;4.27;;;11.60;99.90;;;;;;5028557;28;20517;-73
2021/09/24 05:04:14;;;;;;;9.07;5.53;;;11.70;99.90;;;;;;5034606;28;20427;-74
2021/09/24 05:06:59;;;;;;;5.53;4.27;;;11.80;99.90;;;;;;5035471;28;20447;-74
2021/09/24 05:09:44;;;;;;;8.27;5.37;;;11.90;99.90;;;;;;5038451;28;21265;-74
2021/09/24 05:12:30;;;;;;;6.33;4.40;;;11.90;99.90;;;;;;5033667;28;20436;-74
2021/09/24 05:15:17;;;;;;;6.63;5.27;;;11.90;99.90;;;;;;5035830;28;20594;-74
2021/09/24 05:18:03;;;;;;;6.70;5.30;;;11.80;99.90;;;;;;5050443;28;20498;-74
2021/09/24 05:20:49;;;;;;;11.27;5.57;;;11.80;99.90;;;;;;5038614;28;20446;-73
2021/09/24 05:23:34;;;;;;;7.73;4.63;;;11.90;99.90;;;;;;5040858;28;20421;-73
2021/09/24 05:26:20;;;;;;;7.73;5.67;;;11.90;99.90;;;;;;5020777;28;20476;-73
2021/09/24 05:29:06;;;;;;;6.47;5.10;;;12.00;99.90;;;;;;5040115;28;20534;-73
2021/09/24 05:31:53;;;;;;;7.43;4.93;;;11.90;99.90;;;;;;5039281;28;20470;-73
2021/09/24 05:34:39;;;;;;;11.83;5.17;;;11.80;99.90;;;;;;5040984;28;20447;-74
2021/09/24 05:37:24;;;;;;;10.97;5.57;;;11.70;99.90;;;;;;5035392;28;20449;-74
2021/09/24 05:40:11;;;;;;;6.27;4.90;;;11.70;99.90;;;;;;5040806;28;20443;-74
2021/09/24 05:42:56;;;;;;;7.20;5.40;;;11.60;99.90;;;;;;5031436;28;20601;-74
2021/09/24 05:45:42;;;;;;;6.83;5.27;;;11.80;99.90;;;;;;5038176;28;20436;-74
2021/09/24 05:48:29;;;;;;;9.93;5.70;;;11.80;99.90;;;;;;5012242;28;20563;-74
2021/09/24 05:51:15;;;;;;;5.77;4.60;;;11.90;99.90;;;;;;5042821;28;20536;-74
2021/09/24 05:54:01;;;;;;;7.57;4.67;;;12.00;99.90;;;;;;5045728;28;20468;-74
2021/09/24 05:56:46;;;;;;;8.90;4.97;;;12.00;99.90;;;;;;5032192;28;20507;-73
2021/09/24 05:59:31;;;;;;;11.50;4.47;;;12.00;99.90;;;;;;5037218;28;20458;-74
2021/09/24 06:02:17;;;;;;;7.97;5.50;;;12.10;99.90;;;;;;5036379;28;20798;-74
2021/09/24 06:05:05;;;;;;;6.33;5.00;;;12.30;99.90;;;;;;5043888;28;20460;-74
2021/09/24 06:07:51;;;;;;;7.77;4.70;;;12.30;99.90;;;;;;5040223;28;20456;-74
2021/09/24 06:10:38;;;;;;;6.43;5.17;;;12.40;99.90;;;;;;5035263;28;20578;-74
2021/09/24 06:13:24;;;;;;;10.93;5.17;;;12.50;99.90;;;;;;5013443;28;21090;-74
2021/09/24 06:16:10;;;;;;;9.90;6.03;;;12.60;99.90;;;;;;5046338;28;20423;-74
2021/09/24 06:18:57;;;;;;;6.50;4.97;;;12.70;99.90;;;;;;5047726;28;20522;-74
2021/09/24 06:21:45;;;;;;;7.97;5.17;;;12.70;99.90;;;;;;5046910;28;20451;-74
2021/09/24 06:24:31;;;;;;;7.10;4.77;;;12.70;99.90;;;;;;5036184;28;21183;-74
2021/09/24 06:27:16;;;;;;;9.87;5.70;;;12.80;99.90;;;;;;5042950;28;20471;-74
2021/09/24 06:30:02;;;;;;;8.23;5.67;;;12.70;99.90;;;;;;5053711;28;20989;-74
2021/09/24 06:32:48;;;;;;;9.30;6.07;;;12.70;99.90;;;;;;5040966;28;20447;-73
2021/09/24 06:35:34;;;;;;;7.30;5.93;;;12.70;99.90;;;;;;5046638;28;20537;-73
2021/09/24 06:38:21;;;;;;;8.10;6.00;;;12.70;99.90;;;;;;5039650;28;20427;-72
2021/09/24 06:41:06;;;;;;;8.80;6.60;;;12.80;99.90;;;;;;5040099;28;20448;-73
2021/09/24 06:43:52;;;;;;;10.93;6.17;;;12.90;99.90;;;;;;5049031;28;20489;-74
2021/09/24 06:46:38;;;;;;;11.03;6.40;;;12.90;99.90;;;;;;5049728;28;20980;-73
2021/09/24 06:49:25;;;;;;;8.97;5.90;;;13.00;99.90;;;;;;5042702;28;20590;-74
2021/09/24 06:52:11;;;;;;;9.50;6.10;;;13.10;99.90;;;;;;5052927;28;20478;-73
2021/09/24 06:54:58;;;;;;;9.97;7.40;;;13.10;99.90;;;;;;5042042;28;20447;-73
2021/09/24 06:57:44;;;;;;;9.00;6.67;;;13.20;99.90;;;;;;5034270;28;20534;-73
2021/09/24 07:00:30;;;;;;;11.83;7.60;;;13.30;99.90;;;;;;5040472;28;20571;-74
2021/09/24 07:03:16;;;;;;;12.77;7.60;;;13.40;99.90;;;;;;5030690;28;20442;-74
2021/09/24 07:06:01;;;;;;;10.80;5.93;;;13.40;99.90;;;;;;5050892;28;20508;-73
2021/09/24 07:08:47;;;;;;;8.70;6.90;;;13.60;99.90;;;;;;5042136;28;21023;-72
2021/09/24 07:11:34;;;;;;;11.80;6.80;;;13.80;99.90;;;;;;5035104;28;20487;-75
2021/09/24 07:14:21;;;;;;;9.37;6.67;;;13.90;99.90;;;;;;5040424;28;20832;-74
2021/09/24 07:17:07;;;;;;;9.97;7.00;;;13.90;99.90;;;;;;5037194;28;20468;-73
2021/09/24 07:19:52;;;;;;;14.97;7.53;;;13.90;99.90;;;;;;5047792;28;20517;-74
2021/09/24 07:22:38;;;;;;;12.60;7.00;;;14.00;99.90;;;;;;5015837;28;20428;-73
2021/09/24 07:25:23;;;;;;;12.47;7.77;;;14.20;99.90;;;;;;5015185;28;20426;-75
2021/09/24 07:28:10;;;;;;;10.10;6.80;;;14.20;99.90;;;;;;5022695;28;20471;-74
2021/09/24 07:30:56;;;;;;;7.40;6.60;;;14.40;99.90;;;;;;5038926;28;21007;-75
2021/09/24 07:33:42;;;;;;;10.27;6.73;;;14.40;99.90;;;;;;5035942;28;20455;-75
2021/09/24 07:36:28;;;;;;;10.37;7.93;;;14.60;99.90;;;;;;5026993;28;20465;-75
2021/09/24 07:39:14;;;;;;;8.40;6.47;;;14.70;99.90;;;;;;5025013;28;20484;-74
2021/09/24 07:41:59;;;;;;;9.87;7.07;;;14.80;99.90;;;;;;5032727;28;20433;-74
2021/09/24 07:44:47;;;;;;;9.23;6.97;;;14.90;99.90;;;;;;5040406;28;20456;-75
2021/09/24 07:47:32;;;;;;;22.50;7.47;;;15.00;99.90;;;;;;5030207;28;20979;-75
2021/09/24 07:50:19;;;;;;;10.90;7.43;;;15.10;99.90;;;;;;5041574;28;20397;-75
2021/09/24 07:53:05;;;;;;;19.50;8.17;;;15.20;99.90;;;;;;5030842;28;20437;-75
2021/09/24 07:55:51;;;;;;;10.57;7.03;;;15.30;99.90;;;;;;5032884;28;20469;-76
2021/09/24 07:58:38;;;;;;;13.63;7.00;;;15.40;99.90;;;;;;5037340;28;20456;-75
2021/09/24 08:01:25;;;;;;;10.83;7.40;;;15.50;99.90;;;;;;5042176;28;20416;-74
2021/09/24 08:04:11;;;;;;;11.57;8.00;;;15.70;99.90;;;;;;5042799;28;21081;-75
2021/09/24 08:06:57;;;;;;;12.93;7.50;;;15.80;99.90;;;;;;5035717;28;20977;-75
2021/09/24 08:09:42;;;;;;;11.03;8.20;;;15.90;99.90;;;;;;5033568;28;20885;-75
2021/09/24 08:12:28;;;;;;;17.17;8.50;;;16.10;99.90;;;;;;5046814;28;20470;-74
2021/09/24 08:15:15;;;;;;;12.60;8.47;;;16.20;99.90;;;;;;5036904;28;20919;-75
2021/09/24 08:18:01;;;;;;;12.23;9.10;;;16.30;99.90;;;;;;5031084;28;20941;-76
2021/09/24 08:20:47;;;;;;;13.60;8.70;;;16.50;99.90;;;;;;5040563;28;20446;-75
2021/09/24 08:23:34;;;;;;;11.93;7.50;;;16.70;99.90;;;;;;5047188;28;20928;-75
2021/09/24 08:26:19;;;;;;;10.80;8.07;;;16.80;99.90;;;;;;5055649;28;20489;-73
2021/09/24 08:29:05;;;;;;;14.77;7.83;;;17.00;99.90;;;;;;5016381;28;20646;-74
2021/09/24 08:31:51;;;;;;;13.40;8.03;;;17.10;99.90;;;;;;5024110;28;20631;-73
2021/09/24 08:34:37;;;;;;;12.97;7.60;;;17.20;99.90;;;;;;5035007;28;20429;-75
2021/09/24 08:37:23;;;;;;;14.00;7.63;;;17.30;99.90;;;;;;5043548;28;20432;-73
2021/09/24 08:40:10;;;;;;;10.00;7.43;;;17.50;99.90;;;;;;5034331;28;21002;-73
2021/09/24 08:42:56;;;;;;;10.50;7.77;;;17.60;99.90;;;;;;5034063;28;20453;-74
2021/09/24 08:45:43;;;;;;;16.03;8.23;;;17.70;99.90;;;;;;5023697;28;20460;-73
2021/09/24 08:48:29;;;;;;;12.30;8.53;;;17.80;99.90;;;;;;5044414;28;20429;-73
2021/09/24 08:51:16;;;;;;;12.30;6.90;;;17.80;99.90;;;;;;5034639;28;20519;-73
2021/09/24 08:54:03;;;;;;;11.30;7.03;;;18.00;99.90;;;;;;5019638;28;20520;-74
2021/09/24 08:56:49;;;;;;;9.57;7.20;;;18.10;99.90;;;;;;5026196;28;20469;-73
2021/09/24 08:59:35;;;;;;;9.90;7.60;;;18.20;99.90;;;;;;5016615;28;22591;-73
2021/09/24 09:02:20;;;;;;;13.03;6.67;;;18.10;99.90;;;;;;5017653;28;20438;-74
2021/09/24 09:05:06;;;;;;;9.97;7.53;;;18.00;99.90;;;;;;5014202;28;20565;-73
2021/09/24 09:08:06;;;;;;;13.40;7.43;;;18.10;99.90;;;;;;5039783;28;20452;-73
2021/09/24 09:10:56;;;;;;;11.60;7.10;;;17.90;99.90;;;;;;5024606;28;20437;-74
2021/09/24 09:13:49;;;;;;;15.40;7.80;;;17.90;99.90;;;;;;5031788;28;20479;-74
2021/09/24 09:16:36;;;;;;;21.73;8.70;;;18.00;99.90;;;;;;5013512;28;20552;-73
2021/09/24 09:19:21;;;;;;;15.60;8.50;;;18.10;99.90;;;;;;5018941;28;20443;-73
2021/09/24 09:22:21;;;;;;;11.93;8.20;;;18.30;99.90;;;;;;5022589;28;20521;-74
2021/09/24 09:25:14;;;;;;;16.13;7.53;;;18.30;99.90;;;;;;5024538;28;20901;-73
2021/09/24 09:28:03;;;;;;;10.33;8.20;;;18.50;99.90;;;;;;5037747;28;20454;-73
2021/09/24 09:30:49;;;;;;;11.37;7.07;;;18.80;99.90;;;;;;5028057;28;20429;-74
2021/09/24 09:33:37;;;;;;;15.83;9.07;;;19.00;99.90;;;;;;5030248;28;20556;-74
2021/09/24 09:36:24;;;;;;;17.13;8.87;;;19.10;99.90;;;;;;5040526;28;20855;-74
2021/09/24 09:39:12;;;;;;;18.13;8.77;;;19.10;99.90;;;;;;5023066;28;20431;-73
2021/09/24 09:41:59;;;;;;;12.60;8.27;;;19.20;99.90;;;;;;5037067;28;20449;-73
2021/09/24 09:44:45;;;;;;;11.17;8.60;;;19.30;99.90;;;;;;5029581;28;20421;-74
2021/09/24 09:47:32;;;;;;;9.87;7.43;;;19.50;99.90;;;;;;5075535;22;20585;-74
2021/09/24 09:50:21;;;;;;;11.40;8.03;;;19.60;99.90;;;;;;5022046;28;20426;-74
2021/09/24 09:53:08;;;;;;;18.17;9.03;;;19.80;99.90;;;;;;5031182;28;20393;-74
2021/09/24 09:55:58;;;;;;;11.07;8.70;;;19.80;99.90;;;;;;5030906;28;20914;-74
2021/09/24 09:58:45;;;;;;;13.07;8.50;;;19.90;99.90;;;;;;5031119;28;20416;-74
2021/09/24 10:01:31;;;;;;;11.33;6.47;;;19.90;99.90;;;;;;5019134;28;20504;-74
2021/09/24 10:04:16;;;;;;;8.60;7.70;;;19.90;99.90;;;;;;5011344;28;20401;-73
2021/09/24 10:07:12;;;;;;;16.93;7.30;;;20.00;99.90;;;;;;5021686;28;20771;-74
2021/09/24 10:10:07;;;;;;;9.00;6.80;;;20.20;99.90;;;;;;5011292;28;20455;-74
2021/09/24 10:12:53;;;;;;;13.10;7.37;;;20.00;99.90;;;;;;5010284;28;20460;-74
2021/09/24 10:15:40;;;;;;;10.13;6.80;;;20.00;99.90;;;;;;5010841;28;20434;-74
2021/09/24 10:18:25;;;;;;;9.73;5.40;;;20.10;99.90;;;;;;5011587;28;20488;-74
2021/09/24 10:21:11;;;;;;;12.20;5.90;;;20.30;99.90;;;;;;5011287;28;20394;-74
2021/09/24 10:23:58;;;;;;;6.63;4.77;;;20.60;99.90;;;;;;5010137;28;20429;-74
2021/09/24 10:26:48;;;;;;;10.17;5.97;;;20.70;99.90;;;;;;5010731;28;20456;-74
2021/09/24 10:29:37;;;;;;;11.20;6.60;;;20.80;99.90;;;;;;5011406;28;20906;-74
2021/09/24 10:32:25;;;;;;;11.23;6.60;;;21.00;99.90;;;;;;5011061;28;20577;-74
2021/09/24 10:35:13;;;;;;;9.83;7.33;;;20.90;99.90;;;;;;5011151;28;20782;-74
2021/09/24 10:38:09;;;;;;;9.87;6.10;;;21.00;97.40;;;;;;5017626;28;21071;-74
2021/09/24 10:41:02;;;;;;;8.23;5.57;;;21.00;98.20;;;;;;5031295;28;20472;-74
2021/09/24 10:43:50;;;;;;;8.83;5.50;;;21.30;99.30;;;;;;5030547;28;20906;-74
2021/09/24 10:46:40;;;;;;;9.80;5.53;;;21.60;97.40;;;;;;5014161;28;20790;-74
2021/09/24 10:49:31;;;;;;;7.00;4.80;;;21.80;95.50;;;;;;5011711;28;20874;-74
2021/09/24 10:52:17;;;;;;;14.37;6.80;;;21.80;94.90;;;;;;5009998;28;20492;-73
2021/09/24 10:55:07;;;;;;;8.03;6.60;;;21.70;93.50;;;;;;4991870;28;20768;-74
2021/09/24 10:57:54;;;;;;;6.50;5.57;;;21.80;94.50;;;;;;4991624;28;20440;-74
2021/09/24 11:00:47;;;;;;;11.70;5.50;;;21.90;93.30;;;;;;4991578;28;20504;-74
2021/09/24 11:03:34;;;;;;;7.63;4.93;;;22.20;93.40;;;;;;4994901;28;20399;-74
2021/09/24 11:06:37;;;;;;;5.87;5.07;;;22.10;89.10;;;;;;5007879;28;20457;-74
2021/09/24 11:09:26;;;;;;;13.27;4.87;;;21.80;90.60;;;;;;5033222;28;20389;-74
2021/09/24 11:12:12;;;;;;;9.07;5.30;;;21.90;91.60;;;;;;5012999;28;20999;-74
2021/09/24 11:15:10;;;;;;;6.47;4.80;;;21.80;90.70;;;;;;5012107;28;20860;-74
2021/09/24 11:17:56;;;;;;;7.50;4.90;;;21.80;91.90;;;;;;5014847;28;20423;-74
2021/09/24 11:20:42;;;;;;;5.87;4.53;;;22.00;93.30;;;;;;5014013;28;20451;-74
2021/09/24 11:23:37;;;;;;;7.23;4.30;;;22.20;92.10;;;;;;5012934;28;20452;-74
2021/09/24 11:26:25;;;;;;;7.93;4.10;;;22.40;91.00;;;;;;5013879;28;20428;-74
2021/09/24 11:29:12;;;;;;;6.20;4.17;;;22.20;86.10;;;;;;5014352;28;20810;-75
2021/09/24 11:32:09;;;;;;;13.80;3.60;;;22.00;88.30;;;;;;5013882;28;21007;-74
2021/09/24 11:34:56;;;;;;;5.13;3.80;;;21.80;90.00;;;;;;5005268;28;20439;-74
2021/09/24 11:37:46;;;;;;;8.00;3.63;;;21.60;90.20;;;;;;5020104;28;20545;-74
2021/09/24 11:40:34;;;;;;;6.00;4.33;;;21.40;90.90;;;;;;5014137;28;20527;-74
2021/09/24 11:43:24;;;;;;;8.60;3.47;;;21.00;92.20;;;;;;5013947;28;20974;-74
2021/09/24 11:46:12;;;;;;;5.63;4.57;;;21.00;94.00;;;;;;5014505;28;20530;-73
2021/09/24 11:48:58;;;;;;;7.23;4.73;;;21.10;94.50;;;;;;5023154;28;21194;-73
2021/09/24 11:51:58;;;;;;;6.53;4.07;;;21.00;93.50;;;;;;5011397;28;21047;-73
2021/09/24 11:54:44;;;;;;;4.47;3.40;;;20.80;94.30;;;;;;5012454;28;20459;-73
2021/09/24 11:57:30;;;;;;;6.70;4.10;;;20.70;96.50;;;;;;5003864;28;20448;-73
2021/09/24 12:00:16;;;;;;;5.13;3.90;;;20.60;96.20;;;;;;4994009;28;20419;-73
2021/09/24 12:03:10;;;;;;;7.00;4.00;;;20.60;97.20;;;;;;4994004;28;21046;-73
2021/09/24 12:05:59;;;;;;;4.30;3.17;;;20.60;98.00;;;;;;5011558;28;20889;-73
2021/09/24 12:08:46;;;;;;;6.63;4.10;;;20.50;99.10;;;;;;5008998;28;20447;-73
2021/09/24 12:11:42;;;;;;;5.77;4.53;;;20.50;99.80;;;;;;4993795;28;20795;-73
2021/09/24 12:14:29;;;;;;;6.50;3.80;;;20.40;99.40;;;;;;4995714;28;20792;-73
2021/09/24 12:17:15;;;;;;;8.13;4.83;;;20.50;99.80;;;;;;4993949;28;20736;-73
2021/09/24 12:20:01;;;;;;;6.03;3.93;;;20.50;99.10;;;;;;4995983;28;20424;-73
2021/09/24 12:22:47;;;;;;;8.37;4.07;;;20.60;99.20;;;;;;5014537;28;20434;-73
2021/09/24 12:25:32;;;;;;;6.80;3.60;;;20.60;99.90;;;;;;5015729;28;20423;-73
2021/09/24 12:28:18;;;;;;;7.87;3.70;;;20.50;99.20;;;;;;5015657;28;20470;-73
2021/09/24 12:31:06;;;;;;;5.10;3.77;;;20.40;99.10;;;;;;5021546;28;20451;-73
2021/09/24 12:33:53;;;;;;;6.20;3.83;;;20.40;99.80;;;;;;5017115;28;20486;-73
2021/09/24 12:36:55;;;;;;;6.60;4.27;;;20.40;99.60;;;;;;5016197;28;20459;-73
2021/09/24 12:39:43;;;;;;;5.40;3.07;;;20.30;99.90;;;;;;5020739;28;20435;-73
2021/09/24 12:42:34;;;;;;;5.67;4.00;;;20.40;99.90;;;;;;5014871;28;20416;-73
2021/09/24 12:45:23;;;;;;;10.10;3.80;;;20.30;99.60;;;;;;5010112;28;21125;-72
2021/09/24 12:48:13;;;;;;;7.03;3.57;;;20.40;99.90;;;;;;5023480;28;20433;-73
2021/09/24 12:50:59;;;;;;;4.40;3.10;;;20.50;99.90;;;;;;5021817;28;20439;-73
2021/09/24 12:53:45;;;;;;;8.53;3.97;;;20.60;99.90;;;;;;5020657;28;20473;-73
2021/09/24 12:56:32;;;;;;;3.80;3.10;;;20.50;99.00;;;;;;5021918;28;20429;-73
2021/09/24 12:59:19;;;;;;;5.83;4.03;;;20.50;99.40;;;;;;5023897;28;20401;-73
2021/09/24 13:02:05;;;;;;;6.33;3.30;;;20.50;98.90;;;;;;5020232;28;20463;-73
2021/09/24 13:04:53;;;;;;;13.10;3.90;;;20.60;99.50;;;;;;5020015;28;20828;-73
2021/09/24 13:07:39;;;;;;;4.17;3.03;;;20.70;98.80;;;;;;5012545;28;20483;-73
2021/09/24 13:10:25;;;;;;;15.37;3.80;;;21.20;99.40;;;;;;5023099;28;20966;-73
2021/09/24 13:13:10;;;;;;;9.97;4.33;;;21.90;97.20;;;;;;5021926;28;20465;-73
2021/09/24 13:15:57;;;;;;;4.90;3.23;;;22.40;93.60;;;;;;5023359;28;20597;-73
2021/09/24 13:18:43;;;;;;;4.97;3.43;;;22.70;91.90;;;;;;5027269;28;21087;-73
2021/09/24 13:21:35;;;;;;;4.10;3.20;;;22.70;88.50;;;;;;5015893;28;20829;-73
2021/09/24 13:24:20;;;;;;;4.30;3.13;;;22.80;83.00;;;;;;5010267;28;20378;-73
2021/09/24 13:27:06;;;;;;;6.13;3.53;;;23.10;83.80;;;;;;5022487;28;20418;-73
2021/09/24 13:29:52;;;;;;;5.40;3.47;;;23.50;75.50;;;;;;5023324;28;20442;-73
2021/09/24 13:32:38;;;;;;;5.93;3.40;;;23.60;73.80;;;;;;5023202;28;20475;-73
2021/09/24 13:35:24;;;;;;;5.03;3.00;;;24.00;73.40;;;;;;5016916;28;20457;-73
2021/09/24 13:38:11;;;;;;;5.33;3.50;;;24.20;70.30;;;;;;5014417;28;20422;-73
2021/09/24 13:40:57;;;;;;;5.70;2.70;;;24.10;68.60;;;;;;5022248;28;20421;-73
2021/09/24 13:43:43;;;;;;;3.93;2.50;;;24.00;70.40;;;;;;5024357;28;20439;-73
2021/09/24 13:46:29;;;;;;;5.13;2.90;;;23.80;68.00;;;;;;5019150;28;20431;-73
2021/09/24 13:49:14;;;;;;;5.30;2.80;;;23.60;67.40;;;;;;5017899;28;20976;-73
2021/09/24 13:52:00;;;;;;;5.23;2.90;;;23.80;65.00;;;;;;5022838;28;20940;-73
2021/09/24 13:54:47;;;;;;;5.07;2.57;;;24.00;61.80;;;;;;5023681;28;20512;-73
2021/09/24 13:57:33;;;;;;;4.90;2.70;;;24.10;59.70;;;;;;5022144;28;21040;-73
2021/09/24 14:00:19;;;;;;;4.60;2.73;;;24.10;60.70;;;;;;5015022;28;20979;-73
2021/09/24 14:03:05;;;;;;;8.97;3.60;;;23.50;61.60;;;;;;5023157;28;20392;-73
2021/09/24 14:05:51;;;;;;;6.00;3.47;;;22.90;61.60;;;;;;5014825;28;20854;-73
2021/09/24 14:08:37;;;;;;;7.40;2.97;;;22.40;64.50;;;;;;5018516;28;20422;-73
2021/09/24 14:11:24;;;;;;;6.43;2.87;;;22.10;67.80;;;;;;5023477;28;20406;-73
2021/09/24 14:14:10;;;;;;;5.70;2.90;;;22.50;69.00;;;;;;5010588;28;20479;-73
2021/09/24 14:16:56;;;;;;;6.93;4.57;;;22.70;64.90;;;;;;5011097;28;20411;-73
2021/09/24 14:19:41;;;;;;;9.03;2.83;;;22.70;64.50;;;;;;5010442;28;20785;-72
2021/09/24 14:22:27;;;;;;;5.97;3.27;;;22.70;67.10;;;;;;5011455;28;20516;-71
2021/09/24 14:25:12;;;;;;;12.53;3.40;;;22.60;63.40;;;;;;5019114;28;20948;-71